createdAt,value
2023-05-07T00:00:41.191Z,94.59
2023-05-07T00:01:41.295Z,94.79
2023-05-07T00:02:41.316Z,95.09
2023-05-07T00:03:41.258Z,95.30
2023-05-07T00:04:41.132Z,95.54
2023-05-07T00:05:41.133Z,95.54
2023-05-07T00:06:41.096Z,95.75
2023-05-07T00:07:41.144Z,95.95
2023-05-07T00:08:41.073Z,96.06
2023-05-07T00:09:41.068Z,96.06
2023-05-07T00:10:41.037Z,96.26
2023-05-07T00:11:41.063Z,96.56
2023-05-07T00:12:41.078Z,96.26
2023-05-07T00:13:41.041Z,96.20
2023-05-07T00:14:41.004Z,96.30
2023-05-07T00:15:41.002Z,96.30
2023-05-07T00:16:41.027Z,96.51
2023-05-07T00:17:40.995Z,96.71
2023-05-07T00:18:40.928Z,96.77
2023-05-07T00:19:40.950Z,96.77
2023-05-07T00:20:40.921Z,96.77
2023-05-07T00:21:40.944Z,96.77
2023-05-07T00:22:40.913Z,96.67
2023-05-07T00:23:40.935Z,96.52
2023-05-07T00:24:40.857Z,96.42
2023-05-07T00:25:40.865Z,96.31
2023-05-07T00:26:40.847Z,96.22
2023-05-07T00:27:40.857Z,95.91
2023-05-07T00:28:40.828Z,95.66
2023-05-07T00:29:40.819Z,95.15
2023-05-07T00:30:40.801Z,94.95
2023-05-07T00:31:40.816Z,94.85
2023-05-07T00:32:40.812Z,94.54
2023-05-07T00:33:40.791Z,94.34
2023-05-07T00:34:40.728Z,93.93
2023-05-07T00:35:40.742Z,93.83
2023-05-07T00:36:40.704Z,93.83
2023-05-07T00:37:40.721Z,93.73
2023-05-07T00:38:40.723Z,93.63
2023-05-07T00:39:40.735Z,93.52
2023-05-07T00:40:40.674Z,93.52
2023-05-07T00:41:40.688Z,93.63
2023-05-07T00:42:40.628Z,93.73
2023-05-07T00:43:40.639Z,93.73
2023-05-07T00:44:40.605Z,93.73
2023-05-07T00:45:40.652Z,93.48
2023-05-07T00:46:40.552Z,93.28
2023-05-07T00:47:40.615Z,93.18
2023-05-07T00:48:40.555Z,93.07
2023-05-07T00:49:40.560Z,93.07
2023-05-07T00:50:40.537Z,92.87
2023-05-07T00:51:40.541Z,92.52
2023-05-07T00:52:40.505Z,92.32
2023-05-07T00:53:40.618Z,92.22
2023-05-07T00:54:40.459Z,92.12
2023-05-07T00:55:40.479Z,92.02
2023-05-07T00:56:40.445Z,91.82
2023-05-07T00:57:40.472Z,91.71
2023-05-07T00:58:40.410Z,91.51
2023-05-07T00:59:40.423Z,91.36
2023-05-07T01:00:40.384Z,91.16
2023-05-07T01:01:40.494Z,91.10
2023-05-07T01:02:40.428Z,91.10
2023-05-07T01:03:40.400Z,91.30
2023-05-07T01:04:40.412Z,91.51
2023-05-07T01:05:40.348Z,91.82
2023-05-07T01:06:40.376Z,91.71
2023-05-07T01:07:40.310Z,91.56
2023-05-07T01:08:40.271Z,91.51
2023-05-07T01:09:40.294Z,91.30
2023-05-07T01:10:40.260Z,91.41
2023-05-07T01:11:40.266Z,91.71
2023-05-07T01:12:40.261Z,91.82
2023-05-07T01:13:40.249Z,91.71
2023-05-07T01:14:40.193Z,91.82
2023-05-07T01:15:40.205Z,91.82
2023-05-07T01:16:40.268Z,92.02
2023-05-07T01:17:40.220Z,91.91
2023-05-07T01:18:40.260Z,91.56
2023-05-07T01:19:40.155Z,91.26
2023-05-07T01:20:40.130Z,91.06
2023-05-07T01:21:40.131Z,91.06
2023-05-07T01:22:40.155Z,91.06
2023-05-07T01:23:40.148Z,91.06
2023-05-07T01:24:40.067Z,90.86
2023-05-07T01:25:40.073Z,90.66
2023-05-07T01:26:40.061Z,90.45
2023-05-07T01:27:40.057Z,90.55
2023-05-07T01:28:40.417Z,90.55
2023-05-07T01:29:40.056Z,90.55
2023-05-07T01:30:40.019Z,90.55
2023-05-07T01:31:40.050Z,90.55
2023-05-07T01:32:40.037Z,90.90
2023-05-07T01:33:40.003Z,91.41
2023-05-07T01:34:39.936Z,92.02
2023-05-07T01:35:39.958Z,92.57
2023-05-07T01:36:39.900Z,92.87
2023-05-07T01:37:39.922Z,93.07
2023-05-07T01:38:39.904Z,93.28
2023-05-07T01:39:39.899Z,93.52
2023-05-07T01:40:39.864Z,93.73
2023-05-07T01:41:39.868Z,93.89
2023-05-07T01:42:39.825Z,93.89
2023-05-07T01:43:39.842Z,93.79
2023-05-07T01:44:39.833Z,93.68
2023-05-07T01:45:39.827Z,93.38
2023-05-07T01:46:39.791Z,93.07
2023-05-07T01:47:39.806Z,92.77
2023-05-07T01:48:39.746Z,92.67
2023-05-07T01:49:39.780Z,92.67
2023-05-07T01:50:39.711Z,92.72
2023-05-07T01:51:39.816Z,92.63
2023-05-07T01:52:39.736Z,92.32
2023-05-07T01:53:39.692Z,91.91
2023-05-07T01:54:39.662Z,91.82
2023-05-07T01:55:39.685Z,91.61
2023-05-07T01:56:39.630Z,91.51
2023-05-07T01:57:39.637Z,91.51
2023-05-07T01:58:39.621Z,91.65
2023-05-07T01:59:39.644Z,91.86
2023-05-07T02:00:39.585Z,92.26
2023-05-07T02:01:39.616Z,92.57
2023-05-07T02:02:39.703Z,93.02
2023-05-07T02:03:39.695Z,93.43
2023-05-07T02:04:39.537Z,93.93
2023-05-07T02:05:39.552Z,94.38
2023-05-07T02:06:39.500Z,94.59
2023-05-07T02:07:39.535Z,94.69
2023-05-07T02:08:39.478Z,95.04
2023-05-07T02:09:39.498Z,95.45
2023-05-07T02:10:39.447Z,95.85
2023-05-07T02:11:39.494Z,95.75
2023-05-07T02:12:39.472Z,95.75
2023-05-07T02:13:39.447Z,95.85
2023-05-07T02:14:39.394Z,95.95
2023-05-07T02:15:39.414Z,95.95
2023-05-07T02:16:39.477Z,95.85
2023-05-07T02:17:39.390Z,95.81
2023-05-07T02:18:39.386Z,95.70
2023-05-07T02:19:39.354Z,95.70
2023-05-07T02:20:39.319Z,95.61
2023-05-07T02:21:39.357Z,95.40
2023-05-07T02:22:39.312Z,95.30
2023-05-07T02:23:39.324Z,95.30
2023-05-07T02:24:39.270Z,95.20
2023-05-07T02:25:39.302Z,95.05
2023-05-07T02:26:39.287Z,95.05
2023-05-07T02:27:39.272Z,95.05
2023-05-07T02:28:39.256Z,94.64
2023-05-07T02:29:39.277Z,94.13
2023-05-07T02:30:39.211Z,93.73
2023-05-07T02:31:39.284Z,93.32
2023-05-07T02:32:39.217Z,93.22
2023-05-07T02:33:39.222Z,93.12
2023-05-07T02:34:39.174Z,92.61
2023-05-07T02:35:39.143Z,92.61
2023-05-07T02:36:39.107Z,92.61
2023-05-07T02:37:39.150Z,92.71
2023-05-07T02:38:39.127Z,92.82
2023-05-07T02:39:39.098Z,92.82
2023-05-07T02:40:39.076Z,92.91
2023-05-07T02:41:39.105Z,93.22
2023-05-07T02:42:39.022Z,93.32
2023-05-07T02:43:39.062Z,93.43
2023-05-07T02:44:39.022Z,93.32
2023-05-07T02:45:39.081Z,93.32
2023-05-07T02:46:38.974Z,93.43
2023-05-07T02:47:39.069Z,93.52
2023-05-07T02:48:38.953Z,93.67
2023-05-07T02:49:38.994Z,93.87
2023-05-07T02:50:38.933Z,94.18
2023-05-07T02:51:38.937Z,94.28
2023-05-07T02:52:38.895Z,94.48
2023-05-07T02:53:38.908Z,94.38
2023-05-07T02:54:38.915Z,94.28
2023-05-07T02:55:38.887Z,94.04
2023-05-07T02:56:38.861Z,93.73
2023-05-07T02:57:38.863Z,93.43
2023-05-07T02:58:38.820Z,93.22
2023-05-07T02:59:38.834Z,93.12
2023-05-07T03:00:38.834Z,93.02
2023-05-07T03:01:38.878Z,92.91
2023-05-07T03:02:38.795Z,92.82
2023-05-07T03:03:38.812Z,92.71
2023-05-07T03:04:38.806Z,92.30
2023-05-07T03:05:38.793Z,92.30
2023-05-07T03:06:38.726Z,92.41
2023-05-07T03:07:38.716Z,92.76
2023-05-07T03:08:38.681Z,92.96
2023-05-07T03:09:38.704Z,93.16
2023-05-07T03:10:38.671Z,93.47
2023-05-07T03:11:38.681Z,93.57
2023-05-07T03:12:38.660Z,93.71
2023-05-07T03:13:38.650Z,93.92
2023-05-07T03:14:38.606Z,94.43
2023-05-07T03:15:38.652Z,94.53
2023-05-07T03:16:38.595Z,94.88
2023-05-07T03:17:38.644Z,95.29
2023-05-07T03:18:38.650Z,95.59
2023-05-07T03:19:38.598Z,95.79
2023-05-07T03:20:38.562Z,95.95
2023-05-07T03:21:38.594Z,95.85
2023-05-07T03:22:38.513Z,95.75
2023-05-07T03:23:38.543Z,95.45
2023-05-07T03:24:38.493Z,95.14
2023-05-07T03:25:38.499Z,94.84
2023-05-07T03:26:38.476Z,94.48
2023-05-07T03:27:38.447Z,94.28
2023-05-07T03:28:38.419Z,94.08
2023-05-07T03:29:38.429Z,93.87
2023-05-07T03:30:38.434Z,93.77
2023-05-07T03:31:38.524Z,93.77
2023-05-07T03:32:38.463Z,93.67
2023-05-07T03:33:38.344Z,93.67
2023-05-07T03:34:38.365Z,93.87
2023-05-07T03:35:38.339Z,93.87
2023-05-07T03:36:38.335Z,94.08
2023-05-07T03:37:38.290Z,94.18
2023-05-07T03:38:38.340Z,94.08
2023-05-07T03:39:38.283Z,93.77
2023-05-07T03:40:38.273Z,93.67
2023-05-07T03:41:38.273Z,93.57
2023-05-07T03:42:38.255Z,93.57
2023-05-07T03:43:38.228Z,93.67
2023-05-07T03:44:38.220Z,93.67
2023-05-07T03:45:38.215Z,93.57
2023-05-07T03:46:38.262Z,93.47
2023-05-07T03:47:38.179Z,93.37
2023-05-07T03:48:38.183Z,93.26
2023-05-07T03:49:38.140Z,93.06
2023-05-07T03:50:39.127Z,92.76
2023-05-07T03:51:38.122Z,92.55
2023-05-07T03:52:38.130Z,92.65
2023-05-07T03:53:38.100Z,92.86
2023-05-07T03:54:38.094Z,93.21
2023-05-07T03:55:38.049Z,93.21
2023-05-07T03:56:38.074Z,93.21
2023-05-07T03:57:38.048Z,93.31
2023-05-07T03:58:38.073Z,93.41
2023-05-07T03:59:38.006Z,93.41
2023-05-07T04:00:38.039Z,93.62
2023-05-07T04:01:38.013Z,93.76
2023-05-07T04:02:38.069Z,93.86
2023-05-07T04:03:38.135Z,93.96
2023-05-07T04:04:37.969Z,94.17
2023-05-07T04:05:37.944Z,94.37
2023-05-07T04:06:37.940Z,94.47
2023-05-07T04:07:37.928Z,94.68
2023-05-07T04:08:37.928Z,94.78
2023-05-07T04:09:37.909Z,94.88
2023-05-07T04:10:37.885Z,94.84
2023-05-07T04:11:37.885Z,94.93
2023-05-07T04:12:37.969Z,95.04
2023-05-07T04:13:37.834Z,95.14
2023-05-07T04:14:37.835Z,95.24
2023-05-07T04:15:37.824Z,95.24
2023-05-07T04:16:37.994Z,95.24
2023-05-07T04:17:37.828Z,95.34
2023-05-07T04:18:37.803Z,95.39
2023-05-07T04:19:37.750Z,95.49
2023-05-07T04:20:37.829Z,95.39
2023-05-07T04:21:37.725Z,95.39
2023-05-07T04:22:37.751Z,95.94
2023-05-07T04:23:37.700Z,96.45
2023-05-07T04:24:37.712Z,96.96
2023-05-07T04:25:37.669Z,97.52
2023-05-07T04:26:37.720Z,97.92
2023-05-07T04:27:37.631Z,98.13
2023-05-07T04:28:37.675Z,98.33
2023-05-07T04:29:37.620Z,98.54
2023-05-07T04:30:37.632Z,98.64
2023-05-07T04:31:37.671Z,98.64
2023-05-07T04:32:37.698Z,98.33
2023-05-07T04:33:37.567Z,98.13
2023-05-07T04:34:37.556Z,97.92
2023-05-07T04:35:37.519Z,97.62
2023-05-07T04:36:37.549Z,97.41
2023-05-07T04:37:37.524Z,97.11
2023-05-07T04:38:37.525Z,96.91
2023-05-07T04:39:37.494Z,96.95
2023-05-07T04:40:37.481Z,97.25
2023-05-07T04:41:37.483Z,97.56
2023-05-07T04:42:37.469Z,97.87
2023-05-07T04:43:37.424Z,98.27
2023-05-07T04:44:37.445Z,98.58
2023-05-07T04:45:37.442Z,98.79
2023-05-07T04:46:37.437Z,98.89
2023-05-07T04:47:37.429Z,98.99
2023-05-07T04:48:37.377Z,99.04
2023-05-07T04:49:37.359Z,99.15
2023-05-07T04:50:37.372Z,99.04
2023-05-07T04:51:37.317Z,98.74
2023-05-07T04:52:37.318Z,98.59
2023-05-07T04:53:37.306Z,98.39
2023-05-07T04:54:37.304Z,98.39
2023-05-07T04:55:37.289Z,98.18
2023-05-07T04:56:37.295Z,97.88
2023-05-07T04:57:37.234Z,97.63
2023-05-07T04:58:37.248Z,97.53
2023-05-07T04:59:37.233Z,97.32
2023-05-07T05:00:37.215Z,97.22
2023-05-07T05:01:37.205Z,96.92
2023-05-07T05:02:37.207Z,96.67
2023-05-07T05:03:37.283Z,96.46
2023-05-07T05:04:37.209Z,96.26
2023-05-07T05:05:37.183Z,96.06
2023-05-07T05:06:37.143Z,95.75
2023-05-07T05:07:37.099Z,95.45
2023-05-07T05:08:37.132Z,95.24
2023-05-07T05:09:37.098Z,95.14
2023-05-07T05:10:37.112Z,95.14
2023-05-07T05:11:37.069Z,95.20
2023-05-07T05:12:37.127Z,95.20
2023-05-07T05:13:37.038Z,95.20
2023-05-07T05:14:37.034Z,95.09
2023-05-07T05:15:36.997Z,95.00
2023-05-07T05:16:37.130Z,94.89
2023-05-07T05:17:37.045Z,94.59
2023-05-07T05:18:37.007Z,94.28
2023-05-07T05:19:36.969Z,94.08
2023-05-07T05:20:37.014Z,94.18
2023-05-07T05:21:36.923Z,94.48
2023-05-07T05:22:36.956Z,95.00
2023-05-07T05:23:37.119Z,95.50
2023-05-07T05:24:36.930Z,95.95
2023-05-07T05:25:36.897Z,96.36
2023-05-07T05:26:36.876Z,96.67
2023-05-07T05:27:36.842Z,97.07
2023-05-07T05:28:36.877Z,97.48
2023-05-07T05:29:36.809Z,97.69
2023-05-07T05:30:36.832Z,97.99
2023-05-07T05:31:36.819Z,98.09
2023-05-07T05:32:36.808Z,98.09
2023-05-07T05:33:36.786Z,97.94
2023-05-07T05:34:36.790Z,97.74
2023-05-07T05:35:36.771Z,97.53
2023-05-07T05:36:36.747Z,97.33
2023-05-07T05:37:36.729Z,97.13
2023-05-07T05:38:36.726Z,96.98
2023-05-07T05:39:36.684Z,96.88
2023-05-07T05:40:36.713Z,96.78
2023-05-07T05:41:36.686Z,96.68
2023-05-07T05:42:36.681Z,96.68
2023-05-07T05:43:36.640Z,96.47
2023-05-07T05:44:36.697Z,96.33
2023-05-07T05:45:36.613Z,96.23
2023-05-07T05:46:37.244Z,96.02
2023-05-07T05:47:36.637Z,95.92
2023-05-07T05:48:36.584Z,95.92
2023-05-07T05:49:36.549Z,95.72
2023-05-07T05:50:36.592Z,95.37
2023-05-07T05:51:36.537Z,95.37
2023-05-07T05:52:36.547Z,95.06
2023-05-07T05:53:36.516Z,95.17
2023-05-07T05:54:36.507Z,95.37
2023-05-07T05:55:36.528Z,95.57
2023-05-07T05:56:36.482Z,95.67
2023-05-07T05:57:36.460Z,95.78
2023-05-07T05:58:36.467Z,95.98
2023-05-07T05:59:36.420Z,96.28
2023-05-07T06:00:36.471Z,96.28
2023-05-07T06:01:36.427Z,96.48
2023-05-07T06:02:36.512Z,96.48
2023-05-07T06:03:36.378Z,96.59
2023-05-07T06:04:36.423Z,97.09
2023-05-07T06:05:36.338Z,97.50
2023-05-07T06:06:36.379Z,97.71
2023-05-07T06:07:36.325Z,97.71
2023-05-07T06:08:36.336Z,97.40
2023-05-07T06:09:36.281Z,97.30
2023-05-07T06:10:36.334Z,96.38
2023-05-07T06:11:36.265Z,94.86
2023-05-07T06:12:36.312Z,94.56
2023-05-07T06:13:36.252Z,92.32
2023-05-07T06:14:36.246Z,92.12
2023-05-07T06:15:36.249Z,92.68
2023-05-07T06:16:36.248Z,93.40
2023-05-07T06:17:36.276Z,94.10
2023-05-07T06:18:36.198Z,94.41
2023-05-07T06:19:36.169Z,93.90
2023-05-07T06:20:36.169Z,93.80
2023-05-07T06:21:36.138Z,93.60
2023-05-07T06:22:36.162Z,93.55
2023-05-07T06:23:36.120Z,93.25
2023-05-07T06:24:36.228Z,93.15
2023-05-07T06:25:36.083Z,92.44
2023-05-07T06:26:36.108Z,92.24
2023-05-07T06:27:36.078Z,91.52
2023-05-07T06:28:36.056Z,90.97
2023-05-07T06:29:36.033Z,90.57
2023-05-07T06:30:36.041Z,90.16
2023-05-07T06:31:36.076Z,89.92
2023-05-07T06:32:36.057Z,90.12
2023-05-07T06:33:36.403Z,90.12
2023-05-07T06:34:35.990Z,90.22
2023-05-07T06:35:36.019Z,89.41
2023-05-07T06:36:36.012Z,89.51
2023-05-07T06:37:35.915Z,89.72
2023-05-07T06:38:35.919Z,89.92
2023-05-07T06:39:35.895Z,89.67
2023-05-07T06:40:35.912Z,89.41
2023-05-07T06:41:35.880Z,89.21
2023-05-07T06:42:35.878Z,89.61
2023-05-07T06:43:35.876Z,90.32
2023-05-07T06:44:35.865Z,90.22
2023-05-07T06:45:35.837Z,90.42
2023-05-07T06:46:35.861Z,90.77
2023-05-07T06:47:35.844Z,90.88
2023-05-07T06:48:35.792Z,91.08
2023-05-07T06:49:35.764Z,90.36
2023-05-07T06:50:35.792Z,89.96
2023-05-07T06:51:35.730Z,90.36
2023-05-07T06:52:35.755Z,90.67
2023-05-07T06:53:35.746Z,91.58
2023-05-07T06:54:35.754Z,92.25
2023-05-07T06:55:35.692Z,91.85
2023-05-07T06:56:35.736Z,92.05
2023-05-07T06:57:35.654Z,91.74
2023-05-07T06:58:35.672Z,91.44
2023-05-07T06:59:35.638Z,90.79
2023-05-07T07:00:35.682Z,90.38
2023-05-07T07:01:35.659Z,90.08
2023-05-07T07:02:35.644Z,89.67
2023-05-07T07:03:35.595Z,89.43
2023-05-07T07:04:35.621Z,88.82
2023-05-07T07:05:35.586Z,88.21
2023-05-07T07:06:35.557Z,87.40
2023-05-07T07:07:35.526Z,87.00
2023-05-07T07:08:35.537Z,85.58
2023-05-07T07:09:35.538Z,85.24
2023-05-07T07:10:35.500Z,85.44
2023-05-07T07:11:35.482Z,85.24
2023-05-07T07:12:35.505Z,85.54
2023-05-07T07:13:35.461Z,85.60
2023-05-07T07:14:35.475Z,85.60
2023-05-07T07:15:35.436Z,85.60
2023-05-07T07:16:35.473Z,85.80
2023-05-07T07:17:35.403Z,85.80
2023-05-07T07:18:35.409Z,85.36
2023-05-07T07:19:35.376Z,85.25
2023-05-07T07:20:35.405Z,85.56
2023-05-07T07:21:35.345Z,85.25
2023-05-07T07:22:35.347Z,85.10
2023-05-07T07:23:35.306Z,85.30
2023-05-07T07:24:35.313Z,85.90
2023-05-07T07:25:35.311Z,85.70
2023-05-07T07:26:35.320Z,86.41
2023-05-07T07:27:35.274Z,87.12
2023-05-07T07:28:35.265Z,87.05
2023-05-07T07:29:35.221Z,87.36
2023-05-07T07:30:35.260Z,87.05
2023-05-07T07:31:35.275Z,87.56
2023-05-07T07:32:35.227Z,86.96
2023-05-07T07:33:35.177Z,86.05
2023-05-07T07:34:35.237Z,86.00
2023-05-07T07:35:35.146Z,86.21
2023-05-07T07:36:45.722Z,86.21
2023-05-07T07:37:35.119Z,86.21
2023-05-07T07:38:35.158Z,85.90
2023-05-07T07:39:35.121Z,85.30
2023-05-07T07:40:35.135Z,85.39
2023-05-07T07:41:35.087Z,85.90
2023-05-07T07:42:35.123Z,86.16
2023-05-07T07:43:35.047Z,85.76
2023-05-07T07:44:35.069Z,85.25
2023-05-07T07:45:35.013Z,84.20
2023-05-07T07:46:35.032Z,84.11
2023-05-07T07:47:35.100Z,83.70
2023-05-07T07:48:34.983Z,83.76
2023-05-07T07:49:35.007Z,83.86
2023-05-07T07:50:44.620Z,83.52
2023-05-07T07:51:34.985Z,82.87
2023-05-07T07:52:34.959Z,82.67
2023-05-07T07:53:34.956Z,82.33
2023-05-07T07:54:34.898Z,82.19
2023-05-07T07:55:34.946Z,81.35
2023-05-07T07:56:34.882Z,80.10
2023-05-07T07:57:34.911Z,78.08
2023-05-07T07:58:34.858Z,77.64
2023-05-07T07:59:34.858Z,77.24
2023-05-07T08:00:34.837Z,75.70
2023-05-07T08:01:34.837Z,76.67
2023-05-07T08:02:34.892Z,75.66
2023-05-07T08:03:34.902Z,74.75
2023-05-07T08:04:34.849Z,74.95
2023-05-07T08:05:34.787Z,74.82
2023-05-07T08:06:34.755Z,74.72
2023-05-07T08:07:34.747Z,73.61
2023-05-07T08:08:34.740Z,73.35
2023-05-07T08:09:34.733Z,74.58
2023-05-07T08:10:35.219Z,75.09
2023-05-07T08:11:34.729Z,74.69
2023-05-07T08:12:34.731Z,74.29
2023-05-07T08:13:34.687Z,74.29
2023-05-07T08:14:34.640Z,74.18
2023-05-07T08:15:34.649Z,74.55
2023-05-07T08:16:34.635Z,74.75
2023-05-07T08:17:34.693Z,75.56
2023-05-07T08:18:34.599Z,76.06
2023-05-07T08:19:34.591Z,75.15
2023-05-07T08:20:34.584Z,75.56
2023-05-07T08:21:34.899Z,75.42
2023-05-07T08:22:34.600Z,74.88
2023-05-07T08:23:34.535Z,72.53
2023-05-07T08:24:34.520Z,71.53
2023-05-07T08:25:34.518Z,72.44
2023-05-07T08:26:34.490Z,71.83
2023-05-07T08:27:34.520Z,72.13
2023-05-07T08:28:34.486Z,72.64
2023-05-07T08:29:34.467Z,73.24
2023-05-07T08:30:34.441Z,72.00
2023-05-07T08:31:34.456Z,72.40
2023-05-07T08:32:34.450Z,72.97
2023-05-07T08:33:34.484Z,72.13
2023-05-07T08:34:34.382Z,71.93
2023-05-07T08:35:34.434Z,71.70
2023-05-07T08:36:34.346Z,70.66
2023-05-07T08:37:34.364Z,70.32
2023-05-07T08:38:34.325Z,69.53
2023-05-07T08:39:34.348Z,69.59
2023-05-07T08:40:34.323Z,69.32
2023-05-07T08:41:34.307Z,69.62
2023-05-07T08:42:34.279Z,68.62
2023-05-07T08:43:34.282Z,69.32
2023-05-07T08:44:34.253Z,69.06
2023-05-07T08:45:34.279Z,69.26
2023-05-07T08:46:34.242Z,69.23
2023-05-07T08:47:34.253Z,68.42
2023-05-07T08:48:34.220Z,69.62
2023-05-07T08:49:34.200Z,69.09
2023-05-07T08:50:34.187Z,68.39
2023-05-07T08:51:34.176Z,68.39
2023-05-07T08:52:34.196Z,68.99
2023-05-07T08:53:34.165Z,68.49
2023-05-07T08:54:34.121Z,68.39
2023-05-07T08:55:34.171Z,68.46
2023-05-07T08:56:34.091Z,68.26
2023-05-07T08:57:34.104Z,67.22
2023-05-07T08:58:34.068Z,67.72
2023-05-07T08:59:34.089Z,68.02
2023-05-07T09:00:34.064Z,66.39
2023-05-07T09:01:34.086Z,66.49
2023-05-07T09:02:34.063Z,66.36
2023-05-07T09:03:34.088Z,67.86
2023-05-07T09:04:33.992Z,69.16
2023-05-07T09:05:34.008Z,68.46
2023-05-07T09:06:33.953Z,68.66
2023-05-07T09:07:34.005Z,68.55
2023-05-07T09:08:33.935Z,67.66
2023-05-07T09:09:33.950Z,68.86
2023-05-07T09:10:33.918Z,67.36
2023-05-07T09:11:33.922Z,67.63
2023-05-07T09:12:33.909Z,68.32
2023-05-07T09:13:33.905Z,66.29
2023-05-07T09:14:33.880Z,67.13
2023-05-07T09:15:33.853Z,68.09
2023-05-07T09:16:33.882Z,66.46
2023-05-07T09:17:33.967Z,66.89
2023-05-07T09:18:33.814Z,68.62
2023-05-07T09:19:33.835Z,67.55
2023-05-07T09:20:33.796Z,69.66
2023-05-07T09:21:33.784Z,68.99
2023-05-07T09:22:33.757Z,68.36
2023-05-07T09:23:33.761Z,69.36
2023-05-07T09:24:33.749Z,68.73
2023-05-07T09:25:33.731Z,68.79
2023-05-07T09:26:33.725Z,67.59
2023-05-07T09:27:33.714Z,67.56
2023-05-07T09:28:34.286Z,67.72
2023-05-07T09:29:33.687Z,67.13
2023-05-07T09:30:33.675Z,66.83
2023-05-07T09:31:33.691Z,64.66
2023-05-07T09:32:33.658Z,64.76
2023-05-07T09:33:33.675Z,64.89
2023-05-07T09:34:33.632Z,65.56
2023-05-07T09:35:33.610Z,65.73
2023-05-07T09:36:33.594Z,65.23
2023-05-07T09:37:33.585Z,64.63
2023-05-07T09:38:33.535Z,64.33
2023-05-07T09:39:33.566Z,64.00
2023-05-07T09:40:33.559Z,63.10
2023-05-07T09:41:33.526Z,61.71
2023-05-07T09:42:33.494Z,63.20
2023-05-07T09:43:33.492Z,62.07
2023-05-07T09:44:33.482Z,61.35
2023-05-07T09:45:33.983Z,60.52
2023-05-07T09:46:33.480Z,59.32
2023-05-07T09:47:33.472Z,59.00
2023-05-07T09:48:33.424Z,59.72
2023-05-07T09:49:33.456Z,61.52
2023-05-07T09:50:33.412Z,61.52
2023-05-07T09:51:33.400Z,61.32
2023-05-07T09:52:33.387Z,61.11
2023-05-07T09:53:33.364Z,59.82
2023-05-07T09:54:33.329Z,58.12
2023-05-07T09:55:33.347Z,59.42
2023-05-07T09:56:33.323Z,60.62
2023-05-07T09:57:33.363Z,60.39
2023-05-07T09:58:33.276Z,59.19
2023-05-07T09:59:33.307Z,57.77
2023-05-07T10:00:33.264Z,56.90
2023-05-07T10:01:33.432Z,58.70
2023-05-07T10:02:33.287Z,59.17
2023-05-07T10:03:33.386Z,57.94
2023-05-07T10:04:33.215Z,57.22
2023-05-07T10:05:33.232Z,57.71
2023-05-07T10:06:33.194Z,58.18
2023-05-07T10:07:33.197Z,57.99
2023-05-07T10:08:33.162Z,56.47
2023-05-07T10:09:33.179Z,55.85
2023-05-07T10:10:33.168Z,56.07
2023-05-07T10:11:33.224Z,57.09
2023-05-07T10:12:33.132Z,57.82
2023-05-07T10:13:33.103Z,58.37
2023-05-07T10:14:33.080Z,58.70
2023-05-07T10:15:33.087Z,60.89
2023-05-07T10:16:33.065Z,60.52
2023-05-07T10:17:33.186Z,61.55
2023-05-07T10:18:33.071Z,61.77
2023-05-07T10:19:33.020Z,62.67
2023-05-07T10:20:33.048Z,59.85
2023-05-07T10:21:33.008Z,58.83
2023-05-07T10:22:32.981Z,59.12
2023-05-07T10:23:32.955Z,58.75
2023-05-07T10:24:32.988Z,58.36
2023-05-07T10:25:33.017Z,59.12
2023-05-07T10:26:32.939Z,58.92
2023-05-07T10:27:32.917Z,58.00
2023-05-07T10:28:32.964Z,58.42
2023-05-07T10:29:32.882Z,59.62
2023-05-07T10:30:33.167Z,60.19
2023-05-07T10:31:33.071Z,58.80
2023-05-07T10:32:32.901Z,58.76
2023-05-07T10:33:32.851Z,57.97
2023-05-07T10:34:32.952Z,59.04
2023-05-07T10:35:32.810Z,59.96
2023-05-07T10:36:32.853Z,59.36
2023-05-07T10:37:32.787Z,59.66
2023-05-07T10:38:32.798Z,57.77
2023-05-07T10:39:32.749Z,56.98
2023-05-07T10:40:32.835Z,58.27
2023-05-07T10:41:32.736Z,59.06
2023-05-07T10:42:32.743Z,58.67
2023-05-07T10:43:32.701Z,58.17
2023-05-07T10:44:32.737Z,57.24
2023-05-07T10:45:32.673Z,55.95
2023-05-07T10:46:32.719Z,55.33
2023-05-07T10:47:32.664Z,55.93
2023-05-07T10:48:32.682Z,55.43
2023-05-07T10:49:32.640Z,55.03
2023-05-07T10:50:32.716Z,55.53
2023-05-07T10:51:32.620Z,56.12
2023-05-07T10:52:32.611Z,54.66
2023-05-07T10:53:32.578Z,56.05
2023-05-07T10:54:32.709Z,57.24
2023-05-07T10:55:32.536Z,56.45
2023-05-07T10:56:32.583Z,56.65
2023-05-07T10:57:32.547Z,57.84
2023-05-07T10:58:33.135Z,58.67
2023-05-07T10:59:32.491Z,58.24
2023-05-07T11:00:38.852Z,59.23
2023-05-07T11:01:32.501Z,59.27
2023-05-07T11:02:32.498Z,59.56
2023-05-07T11:03:32.444Z,59.89
2023-05-07T11:04:32.558Z,61.22
2023-05-07T11:05:33.444Z,60.92
2023-05-07T11:06:32.433Z,61.71
2023-05-07T11:07:32.423Z,61.22
2023-05-07T11:08:32.444Z,60.52
2023-05-07T11:09:32.357Z,59.89
2023-05-07T11:10:32.366Z,59.69
2023-05-07T11:11:33.942Z,60.39
2023-05-07T11:12:32.368Z,60.66
2023-05-07T11:13:32.322Z,61.16
2023-05-07T11:14:32.321Z,60.36
2023-05-07T11:15:32.294Z,60.56
2023-05-07T11:16:32.320Z,60.46
2023-05-07T11:17:33.587Z,60.36
2023-05-07T11:18:32.286Z,59.86
2023-05-07T11:19:32.226Z,59.36
2023-05-07T11:20:32.300Z,59.74
2023-05-07T11:21:32.202Z,60.53
2023-05-07T11:22:32.233Z,58.81
2023-05-07T11:23:32.345Z,58.31
2023-05-07T11:24:32.212Z,60.30
2023-05-07T11:25:32.161Z,60.00
2023-05-07T11:26:32.159Z,59.01
2023-05-07T11:27:32.150Z,58.81
2023-05-07T11:28:32.142Z,58.09
2023-05-07T11:29:32.125Z,58.09
2023-05-07T11:30:32.106Z,56.99
2023-05-07T11:31:32.116Z,56.30
2023-05-07T11:32:32.183Z,58.91
2023-05-07T11:33:32.047Z,60.50
2023-05-07T11:34:32.088Z,62.69
2023-05-07T11:35:32.664Z,62.82
2023-05-07T11:36:32.060Z,59.53
2023-05-07T11:37:32.025Z,59.23
2023-05-07T11:38:32.011Z,59.04
2023-05-07T11:39:32.004Z,59.64
2023-05-07T11:40:32.042Z,60.03
2023-05-07T11:41:31.953Z,60.30
2023-05-07T11:42:31.992Z,58.51
2023-05-07T11:43:31.964Z,58.91
2023-05-07T11:44:31.967Z,59.41
2023-05-07T11:45:31.974Z,58.98
2023-05-07T11:46:32.051Z,58.48
2023-05-07T11:47:31.919Z,58.28
2023-05-07T11:48:31.900Z,58.09
2023-05-07T11:49:31.908Z,58.18
2023-05-07T11:50:31.886Z,58.65
2023-05-07T11:51:31.812Z,58.26
2023-05-07T11:52:31.857Z,58.36
2023-05-07T11:53:31.824Z,58.56
2023-05-07T11:54:31.833Z,57.86
2023-05-07T11:55:31.894Z,58.16
2023-05-07T11:56:31.840Z,56.96
2023-05-07T11:57:31.791Z,56.77
2023-05-07T11:58:31.785Z,57.36
2023-05-07T11:59:31.729Z,57.39
2023-05-07T12:00:31.771Z,57.99
2023-05-07T12:01:31.753Z,58.51
2023-05-07T12:02:31.717Z,59.81
2023-05-07T12:03:35.646Z,59.81
2023-05-07T12:04:31.708Z,60.11
2023-05-07T12:05:31.703Z,59.31
2023-05-07T12:06:31.687Z,60.11
2023-05-07T12:07:31.730Z,59.51
2023-05-07T12:08:31.605Z,60.11
2023-05-07T12:09:31.634Z,61.30
2023-05-07T12:10:31.582Z,59.53
2023-05-07T12:11:31.581Z,60.53
2023-05-07T12:12:31.561Z,60.66
2023-05-07T12:13:31.602Z,61.06
2023-05-07T12:14:31.531Z,62.26
2023-05-07T12:15:31.541Z,61.66
2023-05-07T12:16:31.559Z,61.46
2023-05-07T12:17:31.513Z,62.13
2023-05-07T12:18:31.571Z,62.02
2023-05-07T12:19:31.487Z,61.23
2023-05-07T12:20:31.446Z,61.63
2023-05-07T12:21:31.472Z,61.90
2023-05-07T12:22:31.420Z,63.29
2023-05-07T12:23:31.479Z,60.70
2023-05-07T12:24:31.449Z,61.69
2023-05-07T12:25:31.423Z,61.50
2023-05-07T12:26:31.361Z,61.60
2023-05-07T12:27:31.369Z,61.50
2023-05-07T12:28:31.359Z,61.00
2023-05-07T12:29:31.355Z,61.43
2023-05-07T12:30:31.323Z,62.52
2023-05-07T12:31:31.403Z,61.63
2023-05-07T12:32:31.348Z,61.93
2023-05-07T12:33:31.312Z,62.62
2023-05-07T12:34:31.256Z,62.82
2023-05-07T12:35:31.305Z,62.82
2023-05-07T12:36:31.265Z,61.83
2023-05-07T12:37:32.579Z,62.19
2023-05-07T12:38:31.225Z,61.99
2023-05-07T12:39:31.248Z,61.99
2023-05-07T12:40:31.184Z,61.50
2023-05-07T12:41:31.202Z,60.90
2023-05-07T12:42:31.162Z,61.50
2023-05-07T12:43:31.188Z,61.69
2023-05-07T12:44:31.162Z,62.10
2023-05-07T12:45:31.200Z,61.99
2023-05-07T12:46:31.172Z,61.50
2023-05-07T12:47:31.140Z,61.90
2023-05-07T12:48:31.132Z,61.40
2023-05-07T12:49:31.121Z,61.00
2023-05-07T12:50:31.062Z,61.40
2023-05-07T12:51:31.085Z,61.00
2023-05-07T12:52:31.038Z,61.17